Ackermanville, Pennsylvania
Current Conditions -  °F | °C
As of 12:51 AM on Saturday 29 Nov 2014 (Local Time) from KABE Reporting Station
Clear Clear  
Wind Chill: -6°   Ceiling: Unl
Heat Index: -6°   Visibility: 10mi
Dew Point: -10°   Wind: 0mph
Humidity: 72%   Direction: NA
Pressure: 30.27"   Gusts: NA
Location:  40.84°N, 75.22°W
Report Text: KABE 290551Z 00000KT 10SM CLR M06/M10 A3027 RMK AO2 SLP256 T10561100 11022 21072 53002 $
Loading
Personal Weather Stations






























Interactive Weather Map New forecast layout! Learn more

10-Day Weather Forecast

Advertisements
Track Severe Weather on mobile